Time,TemperatureF,DewpointF,PressureIn,WindDirection,WindDirectionDegrees,WindSpeedMPH,WindSpeedGustMPH,Humidity,HourlyPrecipIn,Conditions,Clouds,dailyrainin,SoftwareType,DateUTC
2013-01-30 00:05:00,37.0,36.0,30.06,East,99,0.0,0.0,96,0.00,,,0.00,Wunderground v.1.13,2013-01-30 05:05:00,
2013-01-30 00:10:00,37.0,36.0,30.06,East,99,0.0,0.0,96,0.00,,,0.00,Wunderground v.1.13,2013-01-30 05:10:00,
2013-01-30 00:15:00,36.9,35.9,30.05,East,99,0.0,0.0,96,0.00,,,0.00,Wunderground v.1.13,2013-01-30 05:15:00,
2013-01-30 00:20:00,36.9,35.9,30.05,East,99,0.0,0.0,96,0.00,,,0.00,Wunderground v.1.13,2013-01-30 05:20:00,
2013-01-30 00:30:00,36.9,35.9,30.05,East,99,0.0,0.0,96,0.00,,,0.00,Wunderground v.1.13,2013-01-30 05:30:00,
2013-01-30 00:35:00,37.0,36.0,30.05,East,99,0.0,0.0,96,0.00,,,0.00,Wunderground v.1.13,2013-01-30 05:35:00,
2013-01-30 00:40:00,37.2,36.4,30.05,East,99,0.0,0.0,97,0.00,,,0.00,Wunderground v.1.13,2013-01-30 05:40:00,
2013-01-30 00:45:00,37.3,36.5,30.04,East,99,0.0,0.0,97,0.00,,,0.00,Wunderground v.1.13,2013-01-30 05:45:00,
2013-01-30 00:50:00,37.2,36.4,30.04,East,99,0.0,0.0,97,0.00,,,0.00,Wunderground v.1.13,2013-01-30 05:50:00,
2013-01-30 00:55:00,37.5,36.7,30.04,East,99,0.0,0.0,97,0.00,,,0.00,Wunderground v.1.13,2013-01-30 05:55:00,
2013-01-30 01:00:00,37.6,36.8,30.04,East,99,0.0,0.0,97,0.00,,,0.00,Wunderground v.1.13,2013-01-30 06:00:00,
2013-01-30 01:05:00,37.9,37.1,30.02,East,99,0.0,0.0,97,0.00,,,0.00,Wunderground v.1.13,2013-01-30 06:05:00,
2013-01-30 01:10:00,38.0,37.2,30.02,East,99,0.0,0.0,97,0.00,,,0.00,Wunderground v.1.13,2013-01-30 06:10:00,
2013-01-30 01:15:00,38.0,37.2,30.02,East,99,0.0,0.0,97,0.00,,,0.00,Wunderground v.1.13,2013-01-30 06:15:00,
2013-01-30 01:20:00,38.0,37.2,30.02,East,99,0.0,0.0,97,0.00,,,0.00,Wunderground v.1.13,2013-01-30 06:20:00,
2013-01-30 01:30:00,38.0,37.2,30.02,East,99,0.0,0.0,97,0.00,,,0.00,Wunderground v.1.13,2013-01-30 06:30:00,
2013-01-30 01:35:00,37.9,37.1,30.01,East,99,0.0,0.0,97,0.00,,,0.00,Wunderground v.1.13,2013-01-30 06:35:00,
2013-01-30 01:40:00,37.8,37.0,30.01,East,99,0.0,0.0,97,0.00,,,0.00,Wunderground v.1.13,2013-01-30 06:40:00,
2013-01-30 01:45:00,37.8,37.0,30.01,East,99,0.0,0.0,97,0.00,,,0.00,Wunderground v.1.13,2013-01-30 06:45:00,
2013-01-30 01:55:00,37.8,37.0,30.00,East,99,0.0,0.0,97,0.00,,,0.00,Wunderground v.1.13,2013-01-30 06:55:00,
2013-01-30 02:00:00,38.0,37.2,30.00,East,99,0.0,0.0,97,0.00,,,0.00,Wunderground v.1.13,2013-01-30 07:00:00,
2013-01-30 02:05:00,38.2,37.4,29.99,East,99,0.0,0.0,97,0.00,,,0.00,Wunderground v.1.13,2013-01-30 07:05:00,
2013-01-30 02:10:00,38.0,37.2,29.99,East,99,0.0,0.0,97,0.00,,,0.00,Wunderground v.1.13,2013-01-30 07:10:00,
2013-01-30 02:15:00,38.0,37.2,29.98,East,99,0.0,0.0,97,0.00,,,0.00,Wunderground v.1.13,2013-01-30 07:15:00,
2013-01-30 02:25:00,38.3,37.5,29.98,East,99,0.0,0.0,97,0.00,,,0.00,Wunderground v.1.13,2013-01-30 07:25:00,
2013-01-30 02:30:00,38.5,37.7,29.98,East,99,0.0,0.0,97,0.00,,,0.00,Wunderground v.1.13,2013-01-30 07:30:00,
2013-01-30 02:35:00,38.3,37.5,29.98,East,99,0.0,0.0,97,0.00,,,0.00,Wunderground v.1.13,2013-01-30 07:35:00,
2013-01-30 02:40:00,38.3,37.5,29.98,East,99,0.0,0.0,97,0.00,,,0.00,Wunderground v.1.13,2013-01-30 07:40:00,
2013-01-30 02:45:00,38.3,37.5,29.98,East,99,0.0,0.0,97,0.00,,,0.00,Wunderground v.1.13,2013-01-30 07:45:00,
2013-01-30 02:55:00,38.2,37.4,29.97,East,99,0.0,0.0,97,0.00,,,0.00,Wunderground v.1.13,2013-01-30 07:55:00,
2013-01-30 03:00:00,38.2,37.4,29.97,East,99,0.0,0.0,97,0.00,,,0.00,Wunderground v.1.13,2013-01-30 08:00:00,
2013-01-30 03:05:00,38.0,37.2,29.97,East,99,0.0,0.0,97,0.00,,,0.00,Wunderground v.1.13,2013-01-30 08:05:00,
2013-01-30 03:10:00,38.0,37.2,29.97,East,99,0.0,0.0,97,0.00,,,0.00,Wunderground v.1.13,2013-01-30 08:10:00,
2013-01-30 03:15:00,38.2,37.4,29.97,East,99,0.0,0.0,97,0.00,,,0.00,Wunderground v.1.13,2013-01-30 08:15:00,
2013-01-30 03:20:00,38.0,37.2,29.96,East,99,0.0,0.0,97,0.00,,,0.00,Wunderground v.1.13,2013-01-30 08:20:00,
2013-01-30 03:30:00,38.3,37.5,29.96,East,99,0.0,0.0,97,0.00,,,0.00,Wunderground v.1.13,2013-01-30 08:30:00,
2013-01-30 03:35:00,38.2,37.4,29.95,East,99,0.0,0.0,97,0.00,,,0.00,Wunderground v.1.13,2013-01-30 08:35:00,
2013-01-30 03:40:00,38.2,37.4,29.95,East,99,0.0,0.0,97,0.00,,,0.00,Wunderground v.1.13,2013-01-30 08:40:00,
2013-01-30 03:45:00,38.2,37.4,29.95,East,99,0.0,0.0,97,0.00,,,0.00,Wunderground v.1.13,2013-01-30 08:45:00,
2013-01-30 03:50:00,38.3,37.5,29.94,East,99,0.0,0.0,97,0.00,,,0.00,Wunderground v.1.13,2013-01-30 08:50:00,
2013-01-30 04:00:00,38.3,37.5,29.94,East,99,0.0,0.0,97,0.00,,,0.00,Wunderground v.1.13,2013-01-30 09:00:00,
2013-01-30 04:05:00,38.5,37.7,29.93,East,99,0.0,0.0,97,0.00,,,0.00,Wunderground v.1.13,2013-01-30 09:05:00,
2013-01-30 04:10:00,38.8,38.0,29.93,East,99,0.0,0.0,97,0.00,,,0.00,Wunderground v.1.13,2013-01-30 09:10:00,
2013-01-30 04:15:00,39.1,38.3,29.93,East,99,0.0,0.0,97,0.00,,,0.00,Wunderground v.1.13,2013-01-30 09:15:00,
2013-01-30 04:25:00,38.9,38.1,29.93,East,99,0.0,0.0,97,0.00,,,0.00,Wunderground v.1.13,2013-01-30 09:25:00,
2013-01-30 04:30:00,38.9,38.1,29.93,East,99,0.0,0.0,97,0.00,,,0.01,Wunderground v.1.13,2013-01-30 09:30:00,
2013-01-30 04:35:00,39.1,38.3,29.92,East,99,0.0,0.0,97,0.00,,,0.01,Wunderground v.1.13,2013-01-30 09:35:00,
2013-01-30 04:40:00,39.2,38.4,29.92,East,99,0.0,0.0,97,0.00,,,0.01,Wunderground v.1.13,2013-01-30 09:40:00,
2013-01-30 04:45:00,39.3,38.5,29.91,East,99,0.0,0.0,97,0.00,,,0.01,Wunderground v.1.13,2013-01-30 09:45:00,
2013-01-30 04:50:00,39.3,38.5,29.91,East,99,0.0,0.0,97,0.00,,,0.01,Wunderground v.1.13,2013-01-30 09:50:00,
2013-01-30 05:00:00,39.6,38.8,29.91,East,99,0.0,0.0,97,0.00,,,0.01,Wunderground v.1.13,2013-01-30 10:00:00,
2013-01-30 05:05:00,39.8,39.0,29.90,East,99,0.0,0.0,97,0.00,,,0.01,Wunderground v.1.13,2013-01-30 10:05:00,
2013-01-30 05:10:00,39.9,39.1,29.90,East,99,0.0,0.0,97,0.00,,,0.01,Wunderground v.1.13,2013-01-30 10:10:00,
2013-01-30 05:15:00,40.1,39.3,29.90,East,99,0.0,0.0,97,0.00,,,0.01,Wunderground v.1.13,2013-01-30 10:15:00,
2013-01-30 05:20:00,40.2,39.7,29.91,East,99,0.0,0.0,98,0.00,,,0.01,Wunderground v.1.13,2013-01-30 10:20:00,
2013-01-30 05:25:00,40.8,40.3,29.91,East,99,0.0,0.0,98,0.00,,,0.01,Wunderground v.1.13,2013-01-30 10:25:00,
2013-01-30 05:35:00,41.6,41.1,29.90,East,99,0.0,0.0,98,0.00,,,0.01,Wunderground v.1.13,2013-01-30 10:35:00,
2013-01-30 05:40:00,41.9,41.4,29.90,East,99,0.0,1.0,98,0.00,,,0.01,Wunderground v.1.13,2013-01-30 10:40:00,
2013-01-30 05:45:00,42.2,41.7,29.90,East,99,0.0,0.0,98,0.00,,,0.01,Wunderground v.1.13,2013-01-30 10:45:00,
2013-01-30 05:50:00,42.5,42.0,29.90,East,99,0.0,0.0,98,0.00,,,0.01,Wunderground v.1.13,2013-01-30 10:50:00,
2013-01-30 05:55:00,42.5,42.0,29.90,East,99,0.0,0.0,98,0.00,,,0.01,Wunderground v.1.13,2013-01-30 10:55:00,
2013-01-30 06:05:00,42.9,42.4,29.90,East,99,0.0,0.0,98,0.00,,,0.01,Wunderground v.1.13,2013-01-30 11:05:00,
2013-01-30 06:10:00,42.9,42.4,29.90,East,99,0.0,0.0,98,0.00,,,0.01,Wunderground v.1.13,2013-01-30 11:10:00,
2013-01-30 06:15:00,42.9,42.4,29.90,East,99,0.0,0.0,98,0.00,,,0.01,Wunderground v.1.13,2013-01-30 11:15:00,
2013-01-30 06:20:00,43.1,42.6,29.88,East,99,0.0,1.0,98,0.00,,,0.01,Wunderground v.1.13,2013-01-30 11:20:00,
2013-01-30 06:25:00,43.2,42.7,29.88,East,99,0.0,0.0,98,0.00,,,0.01,Wunderground v.1.13,2013-01-30 11:25:00,
2013-01-30 06:30:00,43.2,42.7,29.88,SE,143,1.0,1.0,98,0.00,,,0.01,Wunderground v.1.13,2013-01-30 11:30:00,
2013-01-30 06:40:00,43.2,42.7,29.88,ESE,119,0.0,0.0,98,0.00,,,0.01,Wunderground v.1.13,2013-01-30 11:40:00,
2013-01-30 06:45:00,43.2,42.7,29.88,ESE,119,0.0,0.0,98,0.00,,,0.01,Wunderground v.1.13,2013-01-30 11:45:00,
2013-01-30 06:50:00,43.3,42.8,29.87,ESE,119,0.0,3.0,98,0.00,,,0.01,Wunderground v.1.13,2013-01-30 11:50:00,
2013-01-30 06:55:00,43.5,43.0,29.87,ESE,114,1.0,1.0,98,0.00,,,0.01,Wunderground v.1.13,2013-01-30 11:55:00,
2013-01-30 07:05:00,43.6,43.1,29.86,ESE,110,1.0,1.0,98,0.00,,,0.01,Wunderground v.1.13,2013-01-30 12:05:00,
2013-01-30 07:10:00,43.8,43.3,29.86,SE,134,1.0,1.0,98,0.00,,,0.01,Wunderground v.1.13,2013-01-30 12:10:00,
2013-01-30 07:15:00,43.9,43.4,29.86,East,96,1.0,1.0,98,0.00,,,0.01,Wunderground v.1.13,2013-01-30 12:15:00,
2013-01-30 07:20:00,44.1,43.6,29.86,ESE,106,1.0,1.0,98,0.00,,,0.01,Wunderground v.1.13,2013-01-30 12:20:00,
2013-01-30 07:25:00,44.1,43.6,29.86,ESE,112,0.0,0.0,98,0.00,,,0.01,Wunderground v.1.13,2013-01-30 12:25:00,
2013-01-30 07:30:00,44.1,43.6,29.86,ESE,116,1.0,1.0,98,0.00,,,0.01,Wunderground v.1.13,2013-01-30 12:30:00,
2013-01-30 07:40:00,44.1,43.6,29.86,ESE,120,0.0,0.0,98,0.00,,,0.01,Wunderground v.1.13,2013-01-30 12:40:00,
2013-01-30 07:45:00,44.2,43.7,29.86,ESE,121,1.0,1.0,98,0.00,,,0.01,Wunderground v.1.13,2013-01-30 12:45:00,
2013-01-30 07:50:00,44.3,43.8,29.85,ESE,121,0.0,0.0,98,0.00,,,0.01,Wunderground v.1.13,2013-01-30 12:50:00,
2013-01-30 07:55:00,44.5,44.0,29.85,ESE,117,0.0,0.0,98,0.00,,,0.01,Wunderground v.1.13,2013-01-30 12:55:00,
2013-01-30 08:00:00,44.6,44.1,29.85,SSE,157,1.0,2.0,98,0.00,,,0.01,Wunderground v.1.13,2013-01-30 13:00:00,
2013-01-30 08:05:00,44.6,44.1,29.84,SSE,157,1.0,1.0,98,0.00,,,0.01,Wunderground v.1.13,2013-01-30 13:05:00,
2013-01-30 08:10:00,44.6,44.1,29.84,ESE,107,0.0,0.0,98,0.00,,,0.01,Wunderground v.1.13,2013-01-30 13:10:00,
2013-01-30 08:15:00,44.6,44.1,29.85,ESE,107,0.0,0.0,98,0.00,,,0.01,Wunderground v.1.13,2013-01-30 13:15:00,
2013-01-30 08:25:00,44.8,44.3,29.85,SE,127,0.0,2.0,98,0.00,,,0.01,Wunderground v.1.13,2013-01-30 13:25:00,
2013-01-30 08:30:00,44.9,44.4,29.85,SE,138,1.0,1.0,98,0.00,,,0.01,Wunderground v.1.13,2013-01-30 13:30:00,
2013-01-30 08:35:00,44.9,44.4,29.84,East,99,1.0,1.0,98,0.00,,,0.01,Wunderground v.1.13,2013-01-30 13:35:00,
2013-01-30 08:40:00,45.1,44.6,29.84,East,95,1.0,2.0,98,0.00,,,0.01,Wunderground v.1.13,2013-01-30 13:40:00,
2013-01-30 08:45:00,45.1,44.6,29.84,ESE,112,1.0,1.0,98,0.00,,,0.01,Wunderground v.1.13,2013-01-30 13:45:00,
2013-01-30 08:55:00,45.2,44.7,29.83,East,100,0.0,0.0,98,0.00,,,0.01,Wunderground v.1.13,2013-01-30 13:55:00,
2013-01-30 09:00:00,45.4,44.9,29.83,East,100,0.0,2.0,98,0.00,,,0.01,Wunderground v.1.13,2013-01-30 14:00:00,
2013-01-30 09:05:00,45.5,45.0,29.82,East,100,0.0,0.0,98,0.00,,,0.01,Wunderground v.1.13,2013-01-30 14:05:00,
2013-01-30 09:10:00,45.8,45.3,29.82,East,100,0.0,0.0,98,0.00,,,0.01,Wunderground v.1.13,2013-01-30 14:10:00,
2013-01-30 09:20:00,46.0,45.2,29.82,SE,136,0.0,0.0,97,0.00,,,0.01,Wunderground v.1.13,2013-01-30 14:20:00,
2013-01-30 09:25:00,46.1,45.6,29.82,SE,133,1.0,1.0,98,0.00,,,0.01,Wunderground v.1.13,2013-01-30 14:25:00,
2013-01-30 09:35:00,46.2,45.4,29.81,ESE,110,1.0,1.0,97,0.00,,,0.01,Wunderground v.1.13,2013-01-30 14:35:00,
2013-01-30 09:40:00,46.2,45.4,29.81,ENE,71,1.0,1.0,97,0.00,,,0.01,Wunderground v.1.13,2013-01-30 14:40:00,
2013-01-30 09:45:00,46.2,45.4,29.81,East,93,1.0,1.0,97,0.00,,,0.01,Wunderground v.1.13,2013-01-30 14:45:00,
2013-01-30 09:50:00,46.2,45.4,29.80,SE,131,1.0,2.0,97,0.00,,,0.01,Wunderground v.1.13,2013-01-30 14:50:00,
2013-01-30 10:00:00,46.4,45.6,29.80,SE,140,1.0,1.0,97,0.00,,,0.01,Wunderground v.1.13,2013-01-30 15:00:00,
2013-01-30 10:05:00,46.4,45.6,29.80,SE,138,1.0,2.0,97,0.00,,,0.01,Wunderground v.1.13,2013-01-30 15:05:00,
2013-01-30 10:10:00,46.5,45.7,29.80,SE,126,1.0,1.0,97,0.00,,,0.01,Wunderground v.1.13,2013-01-30 15:10:00,
2013-01-30 10:15:00,46.5,45.7,29.79,East,86,1.0,1.0,97,0.00,,,0.01,Wunderground v.1.13,2013-01-30 15:15:00,
2013-01-30 10:25:00,46.8,46.0,29.79,SE,133,1.0,1.0,97,0.00,,,0.01,Wunderground v.1.13,2013-01-30 15:25:00,
2013-01-30 10:30:00,47.0,46.2,29.79,SSE,168,1.0,1.0,97,0.00,,,0.01,Wunderground v.1.13,2013-01-30 15:30:00,
2013-01-30 10:40:00,47.1,46.3,29.78,East,100,1.0,5.0,97,0.00,,,0.01,Wunderground v.1.13,2013-01-30 15:40:00,
2013-01-30 10:45:00,47.1,46.3,29.78,SE,128,2.0,6.0,97,0.00,,,0.01,Wunderground v.1.13,2013-01-30 15:45:00,
2013-01-30 10:50:00,47.3,46.5,29.76,South,169,3.0,3.0,97,0.00,,,0.01,Wunderground v.1.13,2013-01-30 15:50:00,
2013-01-30 10:55:00,47.4,46.6,29.76,SE,138,2.0,2.0,97,0.00,,,0.01,Wunderground v.1.13,2013-01-30 15:55:00,
2013-01-30 11:05:00,47.9,47.1,29.75,SE,143,1.0,1.0,97,0.00,,,0.01,Wunderground v.1.13,2013-01-30 16:05:00,
2013-01-30 11:10:00,48.2,47.4,29.75,ESE,123,1.0,1.0,97,0.00,,,0.01,Wunderground v.1.13,2013-01-30 16:10:00,
2013-01-30 11:15:00,48.5,47.7,29.75,SSE,154,0.0,0.0,97,0.00,,,0.01,Wunderground v.1.13,2013-01-30 16:15:00,
2013-01-30 11:24:00,49.2,48.4,29.74,SSW,198,0.0,5.0,97,0.00,,,0.01,Wunderground v.1.13,2013-01-30 16:24:00,
2013-01-30 11:29:00,49.6,48.8,29.74,South,185,0.0,2.0,97,0.00,,,0.01,Wunderground v.1.13,2013-01-30 16:29:00,
2013-01-30 11:35:00,49.9,49.1,29.74,South,178,1.0,1.0,97,0.00,,,0.01,Wunderground v.1.13,2013-01-30 16:35:00,
2013-01-30 11:40:00,50.1,49.3,29.74,ESE,116,2.0,5.0,97,0.00,,,0.01,Wunderground v.1.13,2013-01-30 16:40:00,
2013-01-30 11:45:00,50.4,49.6,29.74,SSE,147,3.0,6.0,97,0.00,,,0.01,Wunderground v.1.13,2013-01-30 16:45:00,
2013-01-30 11:50:00,50.5,49.7,29.73,SSE,162,2.0,2.0,97,0.00,,,0.01,Wunderground v.1.13,2013-01-30 16:50:00,
2013-01-30 11:55:00,50.4,49.6,29.73,SSE,147,2.0,7.0,97,0.00,,,0.01,Wunderground v.1.13,2013-01-30 16:55:00,
2013-01-30 12:00:00,50.5,49.7,29.73,SE,144,3.0,3.0,97,0.00,,,0.01,Wunderground v.1.13,2013-01-30 17:00:00,
2013-01-30 12:05:00,50.8,50.0,29.71,South,188,2.0,2.0,97,0.00,,,0.01,Wunderground v.1.13,2013-01-30 17:05:00,
2013-01-30 12:10:00,51.1,50.3,29.71,SSE,160,1.0,1.0,97,0.00,,,0.01,Wunderground v.1.13,2013-01-30 17:10:00,
2013-01-30 12:19:00,51.9,51.1,29.69,South,171,2.0,2.0,97,0.00,,,0.01,Wunderground v.1.13,2013-01-30 17:19:00,
2013-01-30 12:25:00,52.3,51.5,29.69,South,189,2.0,2.0,97,0.00,,,0.01,Wunderground v.1.13,2013-01-30 17:25:00,
2013-01-30 12:30:00,52.6,51.8,29.69,SE,141,2.0,2.0,97,0.00,,,0.01,Wunderground v.1.13,2013-01-30 17:30:00,
2013-01-30 12:35:00,53.1,52.3,29.68,South,172,2.0,2.0,97,0.00,,,0.01,Wunderground v.1.13,2013-01-30 17:35:00,
2013-01-30 12:40:00,53.2,52.4,29.68,SE,130,2.0,3.0,97,0.00,,,0.01,Wunderground v.1.13,2013-01-30 17:40:00,
2013-01-30 12:45:00,53.3,52.5,29.68,SW,230,2.0,2.0,97,0.00,,,0.01,Wunderground v.1.13,2013-01-30 17:45:00,
2013-01-30 12:54:00,53.3,52.2,29.68,ESE,120,2.0,2.0,96,0.00,,,0.01,Wunderground v.1.13,2013-01-30 17:54:00,
2013-01-30 12:59:00,53.2,52.1,29.68,SSE,148,2.0,3.0,96,0.00,,,0.01,Wunderground v.1.13,2013-01-30 17:59:00,
2013-01-30 13:05:00,53.1,52.0,29.67,ESE,116,2.0,2.0,96,0.00,,,0.01,Wunderground v.1.13,2013-01-30 18:05:00,
2013-01-30 13:10:00,52.9,51.5,29.67,SE,143,1.0,1.0,95,0.00,,,0.01,Wunderground v.1.13,2013-01-30 18:10:00,
2013-01-30 13:15:00,53.1,51.4,29.67,ESE,123,1.0,1.0,94,0.00,,,0.01,Wunderground v.1.13,2013-01-30 18:15:00,
2013-01-30 13:24:00,53.3,51.3,29.66,ESE,120,2.0,2.0,93,0.00,,,0.01,Wunderground v.1.13,2013-01-30 18:24:00,
2013-01-30 13:29:00,53.2,50.9,29.66,ENE,78,3.0,3.0,92,0.00,,,0.01,Wunderground v.1.13,2013-01-30 18:29:00,
2013-01-30 13:35:00,53.2,50.6,29.65,SSE,164,4.0,4.0,91,0.00,,,0.01,Wunderground v.1.13,2013-01-30 18:35:00,
2013-01-30 13:40:00,53.2,50.3,29.65,ESE,106,3.0,3.0,90,0.00,,,0.01,Wunderground v.1.13,2013-01-30 18:40:00,
2013-01-30 13:45:00,53.2,50.3,29.65,ESE,116,3.0,3.0,90,0.00,,,0.01,Wunderground v.1.13,2013-01-30 18:45:00,
2013-01-30 13:50:00,53.2,50.3,29.64,ESE,123,3.0,3.0,90,0.00,,,0.01,Wunderground v.1.13,2013-01-30 18:50:00,
2013-01-30 13:55:00,53.1,49.9,29.64,East,93,3.0,3.0,89,0.00,,,0.01,Wunderground v.1.13,2013-01-30 18:55:00,
2013-01-30 14:00:00,52.9,49.7,29.63,SSE,150,4.0,4.0,89,0.00,,,0.01,Wunderground v.1.13,2013-01-30 19:00:00,
2013-01-30 14:10:00,52.9,49.7,29.63,ESE,102,4.0,4.0,89,0.00,,,0.01,Wunderground v.1.13,2013-01-30 19:10:00,
2013-01-30 14:15:00,52.9,49.7,29.63,SE,138,3.0,6.0,89,0.00,,,0.01,Wunderground v.1.13,2013-01-30 19:15:00,
2013-01-30 14:20:00,52.9,49.7,29.63,East,100,3.0,7.0,89,0.00,,,0.01,Wunderground v.1.13,2013-01-30 19:20:00,
2013-01-30 14:25:00,52.9,49.7,29.63,ESE,112,4.0,4.0,89,0.00,,,0.01,Wunderground v.1.13,2013-01-30 19:25:00,
2013-01-30 14:30:00,53.1,50.2,29.63,ESE,102,5.0,5.0,90,0.00,,,0.01,Wunderground v.1.13,2013-01-30 19:30:00,
2013-01-30 14:35:00,53.2,50.3,29.61,East,100,4.0,7.0,90,0.00,,,0.01,Wunderground v.1.13,2013-01-30 19:35:00,
2013-01-30 14:45:00,53.3,50.4,29.61,SE,136,5.0,5.0,90,0.00,,,0.01,Wunderground v.1.13,2013-01-30 19:45:00,
2013-01-30 14:50:00,53.3,50.4,29.60,SSE,151,5.0,6.0,90,0.00,,,0.01,Wunderground v.1.13,2013-01-30 19:50:00,
2013-01-30 14:55:00,53.3,50.4,29.60,SE,128,4.0,7.0,90,0.00,,,0.01,Wunderground v.1.13,2013-01-30 19:55:00,
2013-01-30 15:00:00,53.1,50.2,29.60,SE,126,5.0,7.0,90,0.00,,,0.01,Wunderground v.1.13,2013-01-30 20:00:00,
2013-01-30 15:05:00,52.9,50.0,29.61,SE,126,5.0,8.0,90,0.00,,,0.01,Wunderground v.1.13,2013-01-30 20:05:00,
2013-01-30 15:10:00,52.8,50.2,29.61,ESE,109,6.0,6.0,91,0.00,,,0.01,Wunderground v.1.13,2013-01-30 20:10:00,
2013-01-30 15:15:00,52.6,50.0,29.60,ESE,109,5.0,5.0,91,0.00,,,0.01,Wunderground v.1.13,2013-01-30 20:15:00,
2013-01-30 15:25:00,52.6,50.3,29.60,SSE,157,4.0,6.0,92,0.00,,,0.01,Wunderground v.1.13,2013-01-30 20:25:00,
2013-01-30 15:30:00,52.8,50.5,29.60,SSE,154,4.0,8.0,92,0.00,,,0.01,Wunderground v.1.13,2013-01-30 20:30:00,
2013-01-30 15:35:00,52.8,50.5,29.60,ESE,117,4.0,4.0,92,0.00,,,0.01,Wunderground v.1.13,2013-01-30 20:35:00,
2013-01-30 15:40:00,52.8,50.5,29.60,SE,138,4.0,4.0,92,0.00,,,0.01,Wunderground v.1.13,2013-01-30 20:40:00,
2013-01-30 15:50:00,52.9,50.6,29.60,SE,128,4.0,4.0,92,0.00,,,0.01,Wunderground v.1.13,2013-01-30 20:50:00,
2013-01-30 15:55:00,53.1,50.8,29.60,South,179,6.0,6.0,92,0.00,,,0.01,Wunderground v.1.13,2013-01-30 20:55:00,
2013-01-30 16:00:00,53.1,50.8,29.60,ESE,116,5.0,8.0,92,0.00,,,0.01,Wunderground v.1.13,2013-01-30 21:00:00,
2013-01-30 16:05:00,53.1,50.8,29.60,ESE,102,5.0,8.0,92,0.00,,,0.01,Wunderground v.1.13,2013-01-30 21:05:00,
2013-01-30 16:10:00,53.2,50.9,29.60,East,99,5.0,5.0,92,0.00,,,0.01,Wunderground v.1.13,2013-01-30 21:10:00,
2013-01-30 16:15:00,53.2,50.9,29.58,ESE,104,6.0,9.0,92,0.00,,,0.01,Wunderground v.1.13,2013-01-30 21:15:00,
2013-01-30 16:25:00,53.3,51.0,29.58,SSE,147,7.0,11.0,92,0.00,,,0.01,Wunderground v.1.13,2013-01-30 21:25:00,
2013-01-30 16:30:00,53.5,51.2,29.58,SE,141,7.0,7.0,92,0.00,,,0.01,Wunderground v.1.13,2013-01-30 21:30:00,
2013-01-30 16:35:00,53.5,51.2,29.57,SSE,150,7.0,8.0,92,0.00,,,0.01,Wunderground v.1.13,2013-01-30 21:35:00,
2013-01-30 16:40:00,53.5,51.2,29.57,ESE,113,6.0,6.0,92,0.00,,,0.01,Wunderground v.1.13,2013-01-30 21:40:00,
2013-01-30 16:45:00,53.5,51.2,29.57,ESE,123,6.0,6.0,92,0.00,,,0.01,Wunderground v.1.13,2013-01-30 21:45:00,
2013-01-30 16:50:00,53.3,51.0,29.57,SE,140,5.0,6.0,92,0.00,,,0.01,Wunderground v.1.13,2013-01-30 21:50:00,
2013-01-30 17:00:00,53.2,50.9,29.57,SSE,150,7.0,7.0,92,0.00,,,0.01,Wunderground v.1.13,2013-01-30 22:00:00,
2013-01-30 17:05:00,53.2,50.9,29.57,ESE,117,7.0,7.0,92,0.00,,,0.01,Wunderground v.1.13,2013-01-30 22:05:00,
2013-01-30 17:10:00,53.1,50.8,29.57,SSE,157,7.0,7.0,92,0.00,,,0.01,Wunderground v.1.13,2013-01-30 22:10:00,
2013-01-30 17:15:00,53.1,50.8,29.55,East,99,7.0,8.0,92,0.00,,,0.01,Wunderground v.1.13,2013-01-30 22:15:00,
2013-01-30 17:25:00,52.9,50.6,29.55,ESE,110,8.0,8.0,92,0.00,,,0.01,Wunderground v.1.13,2013-01-30 22:25:00,
2013-01-30 17:30:00,52.8,50.5,29.55,East,92,7.0,7.0,92,0.00,,,0.01,Wunderground v.1.13,2013-01-30 22:30:00,
2013-01-30 17:35:00,52.8,50.5,29.55,ENE,64,6.0,7.0,92,0.00,,,0.01,Wunderground v.1.13,2013-01-30 22:35:00,
2013-01-30 17:40:00,52.8,50.8,29.55,ESE,107,6.0,6.0,93,0.00,,,0.01,Wunderground v.1.13,2013-01-30 22:40:00,
2013-01-30 17:45:00,52.8,50.8,29.55,ESE,104,7.0,7.0,93,0.00,,,0.01,Wunderground v.1.13,2013-01-30 22:45:00,
2013-01-30 17:50:00,52.8,50.8,29.55,ESE,116,7.0,7.0,93,0.00,,,0.01,Wunderground v.1.13,2013-01-30 22:50:00,
2013-01-30 18:00:00,52.8,50.8,29.55,ESE,114,6.0,6.0,93,0.00,,,0.01,Wunderground v.1.13,2013-01-30 23:00:00,
2013-01-30 18:05:00,52.8,50.8,29.55,ESE,102,4.0,4.0,93,0.00,,,0.01,Wunderground v.1.13,2013-01-30 23:05:00,
2013-01-30 18:10:00,52.6,50.6,29.55,SE,126,1.0,1.0,93,0.00,,,0.02,Wunderground v.1.13,2013-01-30 23:10:00,
2013-01-30 18:15:00,52.6,50.6,29.59,WSW,258,1.0,3.0,93,0.12,,,0.03,Wunderground v.1.13,2013-01-30 23:15:00,
2013-01-30 18:20:00,52.8,51.1,29.59,WSW,258,1.0,1.0,94,0.26,,,0.05,Wunderground v.1.13,2013-01-30 23:20:00,
2013-01-30 18:30:00,52.9,51.2,29.59,South,185,0.0,0.0,94,0.11,,,0.07,Wunderground v.1.13,2013-01-30 23:30:00,
2013-01-30 18:35:00,53.1,51.4,29.57,SSW,200,0.0,0.0,94,0.07,,,0.07,Wunderground v.1.13,2013-01-30 23:35:00,
2013-01-30 18:40:00,52.9,51.2,29.57,SSE,151,1.0,2.0,94,0.06,,,0.08,Wunderground v.1.13,2013-01-30 23:40:00,
2013-01-30 18:45:00,52.9,51.2,29.57,SE,124,3.0,3.0,94,0.06,,,0.08,Wunderground v.1.13,2013-01-30 23:45:00,
2013-01-30 18:50:00,52.8,51.4,29.56,SE,133,3.0,3.0,95,0.05,,,0.08,Wunderground v.1.13,2013-01-30 23:50:00,
2013-01-30 18:55:00,52.9,51.5,29.56,SSE,157,3.0,3.0,95,0.00,,,0.08,Wunderground v.1.13,2013-01-30 23:55:00,
2013-01-30 19:05:00,52.8,51.4,29.55,SSE,160,2.0,2.0,95,0.00,,,0.08,Wunderground v.1.13,2013-01-31 00:05:00,
2013-01-30 19:10:00,52.9,51.5,29.55,SSE,154,1.0,1.0,95,0.00,,,0.08,Wunderground v.1.13,2013-01-31 00:10:00,
2013-01-30 19:15:00,53.1,51.7,29.55,SE,124,2.0,2.0,95,0.00,,,0.09,Wunderground v.1.13,2013-01-31 00:15:00,
2013-01-30 19:20:00,53.3,52.2,29.55,SSE,152,2.0,2.0,96,0.00,,,0.09,Wunderground v.1.13,2013-01-31 00:20:00,
2013-01-30 19:25:00,53.6,52.5,29.55,SSE,148,2.0,3.0,96,0.00,,,0.09,Wunderground v.1.13,2013-01-31 00:25:00,
2013-01-30 19:30:00,53.5,52.1,29.54,SE,134,2.0,2.0,95,0.00,,,0.09,Wunderground v.1.13,2013-01-31 00:30:00,
2013-01-30 19:40:00,53.6,52.2,29.54,SE,131,1.0,1.0,95,0.00,,,0.09,Wunderground v.1.13,2013-01-31 00:40:00,
2013-01-30 19:45:00,53.6,52.5,29.54,SE,134,1.0,1.0,96,0.00,,,0.09,Wunderground v.1.13,2013-01-31 00:45:00,
2013-01-30 19:50:00,53.8,52.7,29.54,ESE,109,1.0,1.0,96,0.00,,,0.09,Wunderground v.1.13,2013-01-31 00:50:00,
2013-01-30 19:55:00,53.6,52.2,29.54,SE,140,1.0,1.0,95,0.00,,,0.10,Wunderground v.1.13,2013-01-31 00:55:00,
2013-01-30 20:00:00,53.6,52.5,29.53,ESE,121,1.0,1.0,96,0.00,,,0.10,Wunderground v.1.13,2013-01-31 01:00:00,
2013-01-30 20:10:00,53.8,52.7,29.53,ESE,110,0.0,0.0,96,0.07,,,0.11,Wunderground v.1.13,2013-01-31 01:10:00,
2013-01-30 20:15:00,53.8,52.7,29.53,SE,141,1.0,1.0,96,0.23,,,0.13,Wunderground v.1.13,2013-01-31 01:15:00,
2013-01-30 20:25:00,53.3,52.2,29.52,SE,133,1.0,8.0,96,0.15,,,0.14,Wunderground v.1.13,2013-01-31 01:25:00,
2013-01-30 20:30:00,53.1,52.0,29.52,ESE,106,2.0,3.0,96,0.10,,,0.14,Wunderground v.1.13,2013-01-31 01:30:00,
2013-01-30 20:40:00,52.6,51.5,29.51,ESE,117,2.0,5.0,96,0.10,,,0.16,Wunderground v.1.13,2013-01-31 01:40:00,
2013-01-30 20:45:00,52.3,51.2,29.50,ESE,113,2.0,2.0,96,0.11,,,0.17,Wunderground v.1.13,2013-01-31 01:45:00,
2013-01-30 20:55:00,51.9,50.8,29.50,SE,136,0.0,1.0,96,0.08,,,0.18,Wunderground v.1.13,2013-01-31 01:55:00,
2013-01-30 21:00:00,51.7,50.6,29.50,ESE,106,0.0,0.0,96,0.06,,,0.19,Wunderground v.1.13,2013-01-31 02:00:00,
2013-01-30 21:10:00,51.1,50.0,29.50,SE,126,1.0,1.0,96,0.07,,,0.20,Wunderground v.1.13,2013-01-31 02:10:00,
2013-01-30 21:15:00,51.0,49.9,29.50,ESE,123,1.0,1.0,96,0.06,,,0.20,Wunderground v.1.13,2013-01-31 02:15:00,
2013-01-30 21:25:00,50.7,49.6,29.49,SE,126,1.0,2.0,96,0.00,,,0.20,Wunderground v.1.13,2013-01-31 02:25:00,
2013-01-30 21:30:00,50.8,49.7,29.49,ESE,120,2.0,4.0,96,0.00,,,0.20,Wunderground v.1.13,2013-01-31 02:30:00,
2013-01-30 21:35:00,50.8,49.7,29.47,East,97,2.0,2.0,96,0.00,,,0.20,Wunderground v.1.13,2013-01-31 02:35:00,
2013-01-30 21:40:00,51.0,49.9,29.47,ESE,112,3.0,3.0,96,0.00,,,0.20,Wunderground v.1.13,2013-01-31 02:40:00,
2013-01-30 21:45:00,51.1,50.0,29.46,East,86,3.0,3.0,96,0.00,,,0.20,Wunderground v.1.13,2013-01-31 02:45:00,
2013-01-30 21:55:00,51.0,49.9,29.46,SE,131,3.0,4.0,96,0.00,,,0.20,Wunderground v.1.13,2013-01-31 02:55:00,
2013-01-30 22:00:00,51.0,49.9,29.46,East,97,2.0,2.0,96,0.00,,,0.20,Wunderground v.1.13,2013-01-31 03:00:00,
2013-01-30 22:05:00,51.3,50.2,29.44,ESE,116,3.0,3.0,96,0.00,,,0.20,Wunderground v.1.13,2013-01-31 03:05:00,
2013-01-30 22:10:00,51.4,50.3,29.44,SE,126,3.0,3.0,96,0.00,,,0.20,Wunderground v.1.13,2013-01-31 03:10:00,
2013-01-30 22:15:00,51.7,50.6,29.42,ESE,102,3.0,6.0,96,0.00,,,0.20,Wunderground v.1.13,2013-01-31 03:15:00,
2013-01-30 22:25:00,51.7,50.6,29.42,SE,138,2.0,2.0,96,0.00,,,0.20,Wunderground v.1.13,2013-01-31 03:25:00,
2013-01-30 22:30:00,51.9,50.8,29.42,South,169,2.0,6.0,96,0.00,,,0.20,Wunderground v.1.13,2013-01-31 03:30:00,
2013-01-30 22:35:00,52.0,50.9,29.41,ESE,103,2.0,2.0,96,0.00,,,0.20,Wunderground v.1.13,2013-01-31 03:35:00,
2013-01-30 22:40:00,52.2,51.4,29.41,SE,137,3.0,3.0,97,0.00,,,0.20,Wunderground v.1.13,2013-01-31 03:40:00,
2013-01-30 22:50:00,52.6,51.8,29.39,ESE,121,4.0,5.0,97,0.00,,,0.20,Wunderground v.1.13,2013-01-31 03:50:00,
2013-01-30 22:55:00,52.8,52.0,29.39,SE,140,5.0,5.0,97,0.00,,,0.20,Wunderground v.1.13,2013-01-31 03:55:00,
2013-01-30 23:00:00,52.9,52.1,29.39,ESE,110,4.0,4.0,97,0.00,,,0.20,Wunderground v.1.13,2013-01-31 04:00:00,
2013-01-30 23:05:00,53.1,52.3,29.39,ESE,103,3.0,3.0,97,0.00,,,0.20,Wunderground v.1.13,2013-01-31 04:05:00,
2013-01-30 23:10:00,53.2,52.4,29.39,SSE,152,4.0,4.0,97,0.00,,,0.20,Wunderground v.1.13,2013-01-31 04:10:00,
2013-01-30 23:20:00,53.6,52.8,29.36,ESE,121,4.0,4.0,97,0.00,,,0.20,Wunderground v.1.13,2013-01-31 04:20:00,
2013-01-30 23:25:00,53.6,52.8,29.36,ESE,103,3.0,3.0,97,0.00,,,0.20,Wunderground v.1.13,2013-01-31 04:25:00,
2013-01-30 23:30:00,53.9,53.1,29.36,SSE,155,3.0,4.0,97,0.00,,,0.20,Wunderground v.1.13,2013-01-31 04:30:00,
2013-01-30 23:35:00,54.1,53.3,29.35,ESE,102,4.0,4.0,97,0.00,,,0.20,Wunderground v.1.13,2013-01-31 04:35:00,
2013-01-30 23:40:00,54.1,53.3,29.35,SSE,164,4.0,5.0,97,0.00,,,0.20,Wunderground v.1.13,2013-01-31 04:40:00,
2013-01-30 23:50:00,54.2,53.1,29.34,ESE,116,3.0,3.0,96,0.00,,,0.21,Wunderground v.1.13,2013-01-31 04:50:00,
2013-01-30 23:55:00,54.2,53.1,29.34,SSE,164,2.0,2.0,96,0.00,,,0.21,Wunderground v.1.13,2013-01-31 04:55:00,